Tjumen, Russia
Current Conditions -  °F | °C
As of 11:00 PM on Monday 24 Nov 2014 (Local Time) from USTR Reporting Station
Blowing Snow Blowing Snow  
Wind Chill: -8°   Ceiling: Unl
Heat Index:   Visibility: 6mi
Dew Point: -8°   Wind: 13mph
Humidity: 48%   Direction: 270°W
Pressure: 30.18"   Gusts: 20mph
Location:  57.15°N, 65.53°E
Report Text: USTR 241800Z 27006G09MPS 9999 DRSN NSC M13/M22 Q1022 NOSIG RMKQFE757/1009 21CLRD65 12420255
Loading
Personal Weather Stations






























Interactive Weather Map New forecast layout! Learn more

10-Day Weather Forecast

Advertisements
Track Severe Weather on mobile